Terminal Aerodrome Forecast
Issued by NWS Lake Charles, LA

Home | Current Version | Previous Version | Text Only | Print | Product List | Glossary On
Versions: 1 2 3 4 5 6 7 8 9 10 11 12 13 14
000
FTUS44 KLCH 021735
TAFAEX
TAF
KAEX 021735Z 0218/0318 VRB03KT P6SM SCT200
     FM022000 13005KT P6SM VCSH SCT035 BKN120
     FM030100 00000KT P6SM FEW050 BKN200
      TEMPO 0310/0313 5SM BR
     FM031500 11005KT P6SM SCT200=

USA.gov is the U.S. government's official web portal to all federal, state and local government web resources and services.